الصفحة الرئيسية
METAR-TAF:

METAR-TAF

مطار :

Meeker Airport

Meeker, كولورادو, الولايات المتحدة

دائرة عرض: 40-02-32N, خط طول: 107-53-23W, ارتفاع: 1948 متر

مراقبة الطقس الحالي

تاريخ ووقت الإصدار 12 دقيقة قبل الساعة 22:53UTC
ريح 14 عقدة من الغرب/الجنوب الغربي تتزايد حتى 20 عقدة
درجة الحرارة 27°درجة مئوية
الرطوبة 6%
ضغط 1022 hPa
الرؤية: 16.1 كم
سماء صافية

METAR: KEEO 222253Z AUTO 25014G20KT 10SM CLR 27/M13 A3017 RMK AO2 PK WND 26027/2225 SLP150 T02671128 $

زمن: 17:05 (23:05 UTC)


TAF: مفقودة

أرصاد الطقس والتوقعات من أكثر من 4000 مطار (تقارير الطقس للمطار METAR والتنبؤ بالطقس بالمطارTAF).

المحطات المتاحة هي النقط الصفراء والحمراء على الخريطة.

حرك المؤشر فوق النقطة لمعرفة اسم المحطة.

ثم انقر لمعرفة أرصاد وتوقعات الطقس.

لتغيير الخارطة: اضغط على الأزرار الخضراء مع رمز الصليب الأسود للتكبير. على الزر الأخضر مع شرطة للتصغير، أو على الأسهم الخضراء للخرائط المجاورة.


METAR-TAF: